sensor_id;sensor_type;location;lat;lon;timestamp;pressure;altitude;pressure_sealevel;temperature;humidity
50087;BME280;35967;50.718;7.050;2024-01-30T00:00:18;101968.56;;;8.04;96.94
50087;BME280;35967;50.718;7.050;2024-01-30T00:10:22;101978.44;;;7.67;97.74
50087;BME280;35967;50.718;7.050;2024-01-30T00:20:26;101976.38;;;7.38;98.11
50087;BME280;35967;50.718;7.050;2024-01-30T00:30:29;101967.50;;;7.11;98.97
50087;BME280;35967;50.718;7.050;2024-01-30T00:40:34;101948.66;;;7.04;98.78
50087;BME280;35967;50.718;7.050;2024-01-30T00:50:37;101957.88;;;6.93;98.00
50087;BME280;35967;50.718;7.050;2024-01-30T01:00:42;101950.06;;;6.84;98.43
50087;BME280;35967;50.718;7.050;2024-01-30T01:10:45;101946.66;;;6.83;97.60
50087;BME280;35967;50.718;7.050;2024-01-30T01:20:49;101944.78;;;6.73;97.58
50087;BME280;35967;50.718;7.050;2024-01-30T01:30:52;101954.94;;;6.67;98.08
50087;BME280;35967;50.718;7.050;2024-01-30T01:40:56;101942.16;;;6.68;98.56
50087;BME280;35967;50.718;7.050;2024-01-30T01:50:59;101929.47;;;7.42;100.00
50087;BME280;35967;50.718;7.050;2024-01-30T02:01:05;101928.78;;;7.55;99.85
50087;BME280;35967;50.718;7.050;2024-01-30T02:11:08;101931.84;;;7.26;100.00
50087;BME280;35967;50.718;7.050;2024-01-30T02:21:14;101921.31;;;7.03;100.00
50087;BME280;35967;50.718;7.050;2024-01-30T02:31:16;101927.25;;;7.73;100.00
50087;BME280;35967;50.718;7.050;2024-01-30T02:41:21;101923.06;;;7.83;100.00
50087;BME280;35967;50.718;7.050;2024-01-30T02:51:24;101926.38;;;7.71;100.00
50087;BME280;35967;50.718;7.050;2024-01-30T03:01:28;101912.69;;;7.70;100.00
50087;BME280;35967;50.718;7.050;2024-01-30T03:11:31;101911.78;;;7.64;100.00
50087;BME280;35967;50.718;7.050;2024-01-30T03:21:36;101913.50;;;7.68;100.00
50087;BME280;35967;50.718;7.050;2024-01-30T03:31:39;101904.88;;;7.60;100.00
50087;BME280;35967;50.718;7.050;2024-01-30T03:41:44;101903.25;;;7.68;100.00
50087;BME280;35967;50.718;7.050;2024-01-30T03:51:47;101909.16;;;7.59;100.00
50087;BME280;35967;50.718;7.050;2024-01-30T04:01:52;101903.06;;;7.49;100.00
50087;BME280;35967;50.718;7.050;2024-01-30T04:11:55;101891.03;;;7.39;100.00
50087;BME280;35967;50.718;7.050;2024-01-30T04:22:00;101880.00;;;7.46;100.00
50087;BME280;35967;50.718;7.050;2024-01-30T04:32:03;101883.50;;;7.53;100.00
50087;BME280;35967;50.718;7.050;2024-01-30T04:42:08;101874.88;;;7.46;100.00
50087;BME280;35967;50.718;7.050;2024-01-30T04:52:11;101868.69;;;7.27;100.00
50087;BME280;35967;50.718;7.050;2024-01-30T05:02:16;101872.16;;;7.34;100.00
50087;BME280;35967;50.718;7.050;2024-01-30T05:12:19;101890.97;;;7.33;100.00
50087;BME280;35967;50.718;7.050;2024-01-30T05:22:23;101891.44;;;7.04;100.00
50087;BME280;35967;50.718;7.050;2024-01-30T05:32:26;101880.16;;;6.88;100.00
50087;BME280;35967;50.718;7.050;2024-01-30T05:42:31;101891.81;;;6.67;100.00
50087;BME280;35967;50.718;7.050;2024-01-30T05:52:34;101869.56;;;6.60;100.00
50087;BME280;35967;50.718;7.050;2024-01-30T06:02:39;101869.09;;;6.89;100.00
50087;BME280;35967;50.718;7.050;2024-01-30T06:12:42;101864.47;;;7.34;100.00
50087;BME280;35967;50.718;7.050;2024-01-30T06:22:46;101869.69;;;7.40;100.00
50087;BME280;35967;50.718;7.050;2024-01-30T06:32:49;101880.72;;;7.33;100.00
50087;BME280;35967;50.718;7.050;2024-01-30T06:42:54;101874.72;;;7.32;100.00
50087;BME280;35967;50.718;7.050;2024-01-30T06:52:57;101869.53;;;7.29;100.00
50087;BME280;35967;50.718;7.050;2024-01-30T07:03:02;101865.41;;;7.40;100.00
50087;BME280;35967;50.718;7.050;2024-01-30T07:13:05;101868.03;;;7.47;100.00
50087;BME280;35967;50.718;7.050;2024-01-30T07:23:09;101854.44;;;7.54;100.00
50087;BME280;35967;50.718;7.050;2024-01-30T07:33:15;101866.56;;;7.70;100.00
50087;BME280;35967;50.718;7.050;2024-01-30T07:43:20;101861.47;;;7.72;100.00
50087;BME280;35967;50.718;7.050;2024-01-30T07:53:24;101883.66;;;7.70;100.00
50087;BME280;35967;50.718;7.050;2024-01-30T08:03:29;101894.78;;;7.72;100.00
50087;BME280;35967;50.718;7.050;2024-01-30T08:13:32;101907.84;;;7.98;100.00
50087;BME280;35967;50.718;7.050;2024-01-30T08:23:38;101897.69;;;8.15;100.00
50087;BME280;35967;50.718;7.050;2024-01-30T08:33:40;101878.94;;;8.21;100.00
50087;BME280;35967;50.718;7.050;2024-01-30T08:43:47;101873.75;;;8.13;100.00
50087;BME280;35967;50.718;7.050;2024-01-30T08:53:50;101879.81;;;8.25;100.00
50087;BME280;35967;50.718;7.050;2024-01-30T09:03:55;101901.50;;;8.62;100.00
50087;BME280;35967;50.718;7.050;2024-01-30T09:14:01;101899.97;;;9.03;100.00
50087;BME280;35967;50.718;7.050;2024-01-30T09:24:07;101918.06;;;9.26;99.83
50087;BME280;35967;50.718;7.050;2024-01-30T09:34:10;101924.19;;;9.72;98.34
50087;BME280;35967;50.718;7.050;2024-01-30T09:44:16;101929.38;;;10.35;96.15
50087;BME280;35967;50.718;7.050;2024-01-30T09:54:20;101936.16;;;10.98;93.31
50087;BME280;35967;50.718;7.050;2024-01-30T10:04:25;101932.56;;;11.36;91.14
50087;BME280;35967;50.718;7.050;2024-01-30T10:14:28;101944.47;;;11.59;88.77
50087;BME280;35967;50.718;7.050;2024-01-30T10:24:33;101957.34;;;11.59;88.40
50087;BME280;35967;50.718;7.050;2024-01-30T10:34:36;101949.66;;;11.56;88.28
50087;BME280;35967;50.718;7.050;2024-01-30T10:44:51;101943.63;;;11.57;88.63
50087;BME280;35967;50.718;7.050;2024-01-30T10:54:58;101945.31;;;11.61;88.92
50087;BME280;35967;50.718;7.050;2024-01-30T11:05:04;101945.28;;;11.69;87.42
50087;BME280;35967;50.718;7.050;2024-01-30T11:15:09;101926.38;;;11.67;87.67
50087;BME280;35967;50.718;7.050;2024-01-30T11:25:14;101916.94;;;11.63;86.80
50087;BME280;35967;50.718;7.050;2024-01-30T11:35:19;101922.09;;;11.61;86.75
50087;BME280;35967;50.718;7.050;2024-01-30T11:45:24;101916.09;;;11.65;85.86
50087;BME280;35967;50.718;7.050;2024-01-30T11:55:28;101917.75;;;11.73;85.38
50087;BME280;35967;50.718;7.050;2024-01-30T12:05:37;101903.06;;;11.81;85.20
50087;BME280;35967;50.718;7.050;2024-01-30T12:15:45;101896.13;;;11.88;84.67
50087;BME280;35967;50.718;7.050;2024-01-30T12:25:49;101896.09;;;11.92;84.55
50087;BME280;35967;50.718;7.050;2024-01-30T12:35:53;101894.34;;;11.96;83.95
50087;BME280;35967;50.718;7.050;2024-01-30T12:46:05;101916.75;;;11.97;83.09
50087;BME280;35967;50.718;7.050;2024-01-30T12:56:08;101935.59;;;12.07;84.28
50087;BME280;35967;50.718;7.050;2024-01-30T13:06:13;101911.53;;;12.03;84.03
50087;BME280;35967;50.718;7.050;2024-01-30T13:16:16;101927.97;;;11.85;84.51
50087;BME280;35967;50.718;7.050;2024-01-30T13:26:21;101928.06;;;11.74;84.28
50087;BME280;35967;50.718;7.050;2024-01-30T13:36:24;101934.91;;;11.74;84.80
50087;BME280;35967;50.718;7.050;2024-01-30T13:46:29;101941.88;;;11.65;84.52
50087;BME280;35967;50.718;7.050;2024-01-30T13:56:33;101952.91;;;11.83;84.13
50087;BME280;35967;50.718;7.050;2024-01-30T14:06:37;101963.25;;;11.84;85.14
50087;BME280;35967;50.718;7.050;2024-01-30T14:16:54;101977.78;;;11.96;85.29
50087;BME280;35967;50.718;7.050;2024-01-30T14:26:58;101977.00;;;11.88;85.42
50087;BME280;35967;50.718;7.050;2024-01-30T14:37:02;101974.41;;;11.87;85.43
50087;BME280;35967;50.718;7.050;2024-01-30T14:47:07;101978.69;;;11.88;86.77
50087;BME280;35967;50.718;7.050;2024-01-30T14:57:11;101986.47;;;11.84;86.25
50087;BME280;35967;50.718;7.050;2024-01-30T15:07:17;102000.19;;;11.87;86.64
50087;BME280;35967;50.718;7.050;2024-01-30T15:17:33;102014.84;;;11.78;87.44
50087;BME280;35967;50.718;7.050;2024-01-30T15:27:38;102029.53;;;11.70;88.04
50087;BME280;35967;50.718;7.050;2024-01-30T15:37:41;102032.16;;;11.65;89.82
50087;BME280;35967;50.718;7.050;2024-01-30T15:47:46;102042.38;;;11.79;92.13
50087;BME280;35967;50.718;7.050;2024-01-30T15:57:50;102048.41;;;11.78;93.34
50087;BME280;35967;50.718;7.050;2024-01-30T16:07:55;102070.78;;;11.78;94.31
50087;BME280;35967;50.718;7.050;2024-01-30T16:17:58;102076.78;;;11.78;94.33
50087;BME280;35967;50.718;7.050;2024-01-30T16:28:03;102081.94;;;11.81;93.81
50087;BME280;35967;50.718;7.050;2024-01-30T16:38:07;102091.38;;;11.87;93.21
50087;BME280;35967;50.718;7.050;2024-01-30T16:48:11;102119.78;;;11.79;93.39
50087;BME280;35967;50.718;7.050;2024-01-30T16:58:19;102139.72;;;11.01;94.47
50087;BME280;35967;50.718;7.050;2024-01-30T17:08:23;102158.59;;;10.86;94.37
50087;BME280;35967;50.718;7.050;2024-01-30T17:18:26;102178.28;;;10.66;94.14
50087;BME280;35967;50.718;7.050;2024-01-30T17:28:31;102188.56;;;10.53;92.84
50087;BME280;35967;50.718;7.050;2024-01-30T17:38:34;102208.28;;;10.37;91.48
50087;BME280;35967;50.718;7.050;2024-01-30T17:48:39;102230.47;;;10.26;89.71
50087;BME280;35967;50.718;7.050;2024-01-30T17:58:43;102233.00;;;10.15;87.89
50087;BME280;35967;50.718;7.050;2024-01-30T18:08:48;102253.63;;;10.20;85.75
50087;BME280;35967;50.718;7.050;2024-01-30T18:18:51;102270.72;;;10.13;84.26
50087;BME280;35967;50.718;7.050;2024-01-30T18:28:55;102266.47;;;10.15;82.11
50087;BME280;35967;50.718;7.050;2024-01-30T18:38:58;102269.81;;;10.03;80.68
50087;BME280;35967;50.718;7.050;2024-01-30T18:49:03;102295.50;;;10.00;80.34
50087;BME280;35967;50.718;7.050;2024-01-30T18:59:07;102309.28;;;10.05;78.91
50087;BME280;35967;50.718;7.050;2024-01-30T19:09:11;102317.81;;;10.01;77.37
50087;BME280;35967;50.718;7.050;2024-01-30T19:19:14;102329.91;;;10.12;76.17
50087;BME280;35967;50.718;7.050;2024-01-30T19:29:19;102343.47;;;9.92;76.54
50087;BME280;35967;50.718;7.050;2024-01-30T19:39:22;102346.91;;;9.91;76.76
50087;BME280;35967;50.718;7.050;2024-01-30T19:49:26;102352.03;;;9.88;75.84
50087;BME280;35967;50.718;7.050;2024-01-30T19:59:30;102349.38;;;9.82;75.60
50087;BME280;35967;50.718;7.050;2024-01-30T20:09:34;102368.03;;;9.59;75.65
50087;BME280;35967;50.718;7.050;2024-01-30T20:19:37;102379.19;;;9.58;75.03
50087;BME280;35967;50.718;7.050;2024-01-30T20:29:42;102384.41;;;9.67;75.28
50087;BME280;35967;50.718;7.050;2024-01-30T20:39:45;102385.09;;;9.51;75.40
50087;BME280;35967;50.718;7.050;2024-01-30T20:49:50;102398.78;;;9.45;75.85
50087;BME280;35967;50.718;7.050;2024-01-30T20:59:53;102409.00;;;9.42;75.19
50087;BME280;35967;50.718;7.050;2024-01-30T21:09:57;102409.19;;;9.59;75.52
50087;BME280;35967;50.718;7.050;2024-01-30T21:20:01;102404.72;;;9.41;76.68
50087;BME280;35967;50.718;7.050;2024-01-30T21:30:06;102415.78;;;9.32;76.92
50087;BME280;35967;50.718;7.050;2024-01-30T21:40:10;102414.00;;;9.28;78.19
50087;BME280;35967;50.718;7.050;2024-01-30T21:50:18;102428.44;;;9.20;76.99
50087;BME280;35967;50.718;7.050;2024-01-30T22:00:21;102441.38;;;9.26;74.82
50087;BME280;35967;50.718;7.050;2024-01-30T22:10:26;102434.34;;;9.11;75.07
50087;BME280;35967;50.718;7.050;2024-01-30T22:20:29;102428.31;;;9.07;76.47
50087;BME280;35967;50.718;7.050;2024-01-30T22:30:34;102443.66;;;9.01;78.38
50087;BME280;35967;50.718;7.050;2024-01-30T22:40:38;102455.63;;;9.00;79.14
50087;BME280;35967;50.718;7.050;2024-01-30T22:50:43;102465.47;;;8.71;81.20
50087;BME280;35967;50.718;7.050;2024-01-30T23:00:46;102480.09;;;8.75;83.59
50087;BME280;35967;50.718;7.050;2024-01-30T23:10:51;102500.50;;;8.67;87.02
50087;BME280;35967;50.718;7.050;2024-01-30T23:21:09;102497.66;;;8.49;89.07
50087;BME280;35967;50.718;7.050;2024-01-30T23:31:13;102505.41;;;8.53;88.60
50087;BME280;35967;50.718;7.050;2024-01-30T23:41:16;102511.53;;;8.62;88.18
50087;BME280;35967;50.718;7.050;2024-01-30T23:51:22;102507.16;;;8.55;88.08
